createdAt,value
2019-03-28T00:01:27.243Z,7.70
2019-03-28T00:03:57.736Z,8.47
2019-03-28T00:06:28.272Z,8.37
2019-03-28T00:08:59.268Z,8.43
2019-03-28T00:11:29.663Z,7.53
2019-03-28T00:14:00.508Z,8.97
2019-03-28T00:16:31.100Z,8.17
2019-03-28T00:19:02.214Z,8.27
2019-03-28T00:21:33.028Z,8.90
2019-03-28T00:24:05.569Z,8.20
2019-03-28T00:26:36.145Z,8.93
2019-03-28T00:29:06.618Z,9.33
2019-03-28T00:31:37.145Z,8.23
2019-03-28T00:34:07.780Z,7.63
2019-03-28T00:36:38.620Z,8.30
2019-03-28T00:39:09.549Z,8.37
2019-03-28T00:41:40.380Z,7.33
2019-03-28T00:44:11.312Z,8.47
2019-03-28T00:46:41.990Z,8.17
2019-03-28T00:49:12.942Z,8.63
2019-03-28T00:51:43.606Z,7.83
2019-03-28T00:54:14.062Z,8.77
2019-03-28T00:56:47.346Z,8.60
2019-03-28T00:59:18.206Z,8.13
2019-03-28T01:01:48.654Z,8.47
2019-03-28T01:04:19.313Z,8.13
2019-03-28T01:06:50.113Z,8.83
2019-03-28T01:09:20.705Z,8.50
2019-03-28T01:11:51.237Z,8.47
2019-03-28T01:14:21.828Z,7.83
2019-03-28T01:16:53.426Z,8.50
2019-03-28T01:19:24.202Z,8.47
2019-03-28T01:21:55.011Z,8.50
2019-03-28T01:24:25.849Z,8.10
2019-03-28T01:26:57.407Z,7.40
2019-03-28T01:29:28.817Z,7.67
2019-03-28T01:31:59.379Z,8.20
2019-03-28T01:34:30.118Z,7.80
2019-03-28T01:37:00.943Z,7.33
2019-03-28T01:39:31.776Z,7.90
2019-03-28T01:42:02.301Z,7.40
2019-03-28T01:44:33.318Z,7.20
2019-03-28T01:47:04.419Z,7.00
2019-03-28T01:49:35.046Z,7.23
2019-03-28T01:52:05.754Z,6.67
2019-03-28T01:54:36.135Z,7.30
2019-03-28T01:57:11.280Z,6.63
2019-03-28T01:59:39.782Z,7.23
2019-03-28T02:02:11.919Z,7.03
2019-03-28T02:04:42.482Z,7.10
2019-03-28T02:07:12.971Z,7.00
2019-03-28T02:09:43.590Z,6.93
2019-03-28T02:12:14.769Z,6.87
2019-03-28T02:14:45.289Z,7.83
2019-03-28T02:17:16.004Z,6.63
2019-03-28T02:19:46.516Z,6.83
2019-03-28T02:22:17.233Z,6.63
2019-03-28T02:24:47.878Z,6.00
2019-03-28T02:27:23.771Z,6.33
2019-03-28T02:29:50.856Z,5.80
2019-03-28T02:32:21.340Z,5.63
2019-03-28T02:34:52.044Z,6.03
2019-03-28T02:37:22.536Z,6.50
2019-03-28T02:39:53.277Z,6.63
2019-03-28T02:42:23.610Z,7.30
2019-03-28T02:44:54.029Z,7.20
2019-03-28T02:47:24.660Z,6.33
2019-03-28T02:49:55.382Z,6.90
2019-03-28T02:52:25.816Z,7.10
2019-03-28T02:54:56.319Z,6.77
2019-03-28T02:57:40.254Z,7.23
2019-03-28T03:00:00.156Z,6.80
2019-03-28T03:02:30.891Z,7.07
2019-03-28T03:05:01.532Z,6.77
2019-03-28T03:07:32.098Z,6.20
2019-03-28T03:10:03.294Z,7.00
2019-03-28T03:12:33.839Z,7.03
2019-03-28T03:15:06.158Z,6.63
2019-03-28T03:17:37.629Z,8.43
2019-03-28T03:20:08.150Z,7.00
2019-03-28T03:22:39.679Z,7.23
2019-03-28T03:25:10.144Z,6.70
2019-03-28T03:27:56.967Z,6.90
2019-03-28T03:30:13.604Z,7.87
2019-03-28T03:32:44.117Z,8.80
2019-03-28T03:35:14.693Z,7.43
2019-03-28T03:37:45.499Z,7.67
2019-03-28T03:40:16.159Z,9.00
2019-03-28T03:42:48.525Z,7.60
2019-03-28T03:45:19.011Z,7.63
2019-03-28T03:47:49.700Z,7.77
2019-03-28T03:50:27.917Z,9.63
2019-03-28T03:52:58.313Z,10.30
2019-03-28T03:55:29.404Z,8.33
2019-03-28T03:58:14.595Z,6.43
2019-03-28T04:00:35.176Z,6.97
2019-03-28T04:03:05.861Z,6.07
2019-03-28T04:05:36.383Z,7.70
2019-03-28T04:08:07.434Z,5.87
2019-03-28T04:10:38.237Z,6.97
2019-03-28T04:13:10.698Z,6.23
2019-03-28T04:15:41.717Z,6.17
2019-03-28T04:18:12.314Z,5.80
2019-03-28T04:20:43.001Z,6.77
2019-03-28T04:23:13.671Z,6.33
2019-03-28T04:25:44.583Z,6.50
2019-03-28T04:28:30.798Z,6.47
2019-03-28T04:30:47.956Z,6.80
2019-03-28T04:33:19.523Z,6.10
2019-03-28T04:35:50.504Z,6.40
2019-03-28T04:38:21.042Z,6.53
2019-03-28T04:40:51.979Z,6.27
2019-03-28T04:43:22.674Z,6.40
2019-03-28T04:45:53.595Z,7.20
2019-03-28T04:48:24.075Z,6.40
2019-03-28T04:50:54.916Z,6.33
2019-03-28T04:53:25.876Z,6.43
2019-03-28T04:55:56.433Z,6.60
2019-03-28T04:58:28.440Z,6.30
2019-03-28T05:00:59.996Z,7.10
2019-03-28T05:03:30.647Z,7.30
2019-03-28T05:06:01.526Z,7.90
2019-03-28T05:08:32.099Z,8.30
2019-03-28T05:11:05.506Z,7.90
2019-03-28T05:13:36.108Z,7.27
2019-03-28T05:16:07.067Z,7.37
2019-03-28T05:18:37.740Z,7.07
2019-03-28T05:21:09.549Z,6.83
2019-03-28T05:23:40.550Z,5.60
2019-03-28T05:26:11.579Z,5.37
2019-03-28T05:28:42.044Z,5.50
2019-03-28T05:31:12.502Z,4.97
2019-03-28T05:33:43.375Z,5.33
2019-03-28T05:36:14.291Z,5.20
2019-03-28T05:38:46.574Z,4.40
2019-03-28T05:41:17.622Z,4.57
2019-03-28T05:43:48.472Z,5.27
2019-03-28T05:46:19.303Z,5.03
2019-03-28T05:48:49.775Z,4.47
2019-03-28T05:51:20.478Z,4.10
2019-03-28T05:53:50.776Z,5.33
2019-03-28T05:56:22.436Z,6.83
2019-03-28T05:58:53.025Z,5.60
2019-03-28T06:01:24.946Z,5.57
2019-03-28T06:03:55.889Z,5.13
2019-03-28T06:06:26.689Z,5.57
2019-03-28T06:08:57.440Z,4.20
2019-03-28T06:11:28.608Z,5.10
2019-03-28T06:14:01.045Z,4.80
2019-03-28T06:16:32.036Z,4.23
2019-03-28T06:19:02.884Z,5.20
2019-03-28T06:21:33.620Z,3.47
2019-03-28T06:24:04.253Z,5.20
2019-03-28T06:26:35.152Z,5.53
2019-03-28T06:29:08.649Z,5.53
2019-03-28T06:31:38.859Z,6.27
2019-03-28T06:34:09.571Z,5.23
2019-03-28T06:36:40.507Z,4.70
2019-03-28T06:39:11.335Z,5.03
2019-03-28T06:41:44.356Z,5.50
2019-03-28T06:44:14.814Z,5.27
2019-03-28T06:46:45.501Z,4.23
2019-03-28T06:49:16.009Z,5.63
2019-03-28T06:51:48.383Z,5.20
2019-03-28T06:54:19.147Z,4.80
2019-03-28T06:56:49.973Z,5.33
2019-03-28T06:59:21.839Z,5.43
2019-03-28T07:01:52.669Z,4.43
2019-03-28T07:04:23.707Z,5.00
2019-03-28T07:06:54.508Z,4.80
2019-03-28T07:09:25.848Z,4.70
2019-03-28T07:11:56.202Z,7.07
2019-03-28T07:14:26.902Z,5.07
2019-03-28T07:16:57.532Z,5.50
2019-03-28T07:19:28.387Z,7.37
2019-03-28T07:21:59.325Z,6.90
2019-03-28T07:24:29.947Z,6.63
2019-03-28T07:27:01.167Z,6.90
2019-03-28T07:29:32.459Z,6.40
2019-03-28T07:32:03.595Z,6.73
2019-03-28T07:34:34.519Z,7.37
2019-03-28T07:37:04.926Z,5.63
2019-03-28T07:39:35.324Z,6.93
2019-03-28T07:42:06.110Z,6.93
2019-03-28T07:44:37.660Z,7.00
2019-03-28T07:47:08.328Z,6.73
2019-03-28T07:49:38.699Z,6.80
2019-03-28T07:52:10.364Z,7.17
2019-03-28T07:54:40.799Z,7.10
2019-03-28T07:57:11.493Z,6.57
2019-03-28T07:59:44.210Z,8.07
2019-03-28T08:02:16.789Z,7.33
2019-03-28T08:04:47.235Z,6.67
2019-03-28T08:07:17.857Z,7.47
2019-03-28T08:09:48.325Z,7.57
2019-03-28T08:12:22.867Z,7.10
2019-03-28T08:14:51.009Z,8.17
2019-03-28T08:17:23.015Z,6.63
2019-03-28T08:19:53.529Z,5.53
2019-03-28T08:22:24.888Z,6.63
2019-03-28T08:24:55.660Z,7.07
2019-03-28T08:27:26.539Z,6.80
2019-03-28T08:29:57.927Z,7.17
2019-03-28T08:32:30.695Z,6.30
2019-03-28T08:35:01.313Z,7.57
2019-03-28T08:37:35.991Z,7.60
2019-03-28T08:40:08.114Z,6.80
2019-03-28T08:42:39.044Z,6.83
2019-03-28T08:45:09.704Z,7.53
2019-03-28T08:47:40.471Z,6.73
2019-03-28T08:50:11.217Z,7.23
2019-03-28T08:52:41.868Z,6.60
2019-03-28T08:55:14.203Z,6.80
2019-03-28T08:57:45.136Z,6.47
2019-03-28T09:00:17.369Z,5.27
2019-03-28T09:02:49.373Z,5.50
2019-03-28T09:05:20.139Z,6.03
2019-03-28T09:07:50.936Z,7.23
2019-03-28T09:10:21.420Z,6.73
2019-03-28T09:12:51.894Z,7.17
2019-03-28T09:15:23.265Z,6.73
2019-03-28T09:17:53.919Z,5.73
2019-03-28T09:20:24.496Z,5.30
2019-03-28T09:22:55.363Z,6.60
2019-03-28T09:25:25.896Z,5.60
2019-03-28T09:27:56.505Z,5.60
2019-03-28T09:30:46.804Z,5.60
2019-03-28T09:33:05.797Z,5.10
2019-03-28T09:35:36.427Z,3.00
2019-03-28T09:38:06.780Z,3.90
2019-03-28T09:40:37.354Z,4.87
2019-03-28T09:43:08.277Z,4.23
2019-03-28T09:45:38.894Z,3.20
2019-03-28T09:48:11.650Z,4.17
2019-03-28T09:50:41.705Z,4.77
2019-03-28T09:53:12.524Z,4.80
2019-03-28T09:55:43.055Z,4.20
2019-03-28T09:58:13.951Z,3.07
2019-03-28T10:00:45.867Z,2.67
2019-03-28T10:03:16.534Z,3.40
2019-03-28T10:05:47.165Z,2.83
2019-03-28T10:08:18.827Z,2.90
2019-03-28T10:10:49.460Z,2.43
2019-03-28T10:13:19.945Z,2.23
2019-03-28T10:15:50.605Z,3.70
2019-03-28T10:18:21.317Z,3.30
2019-03-28T10:20:51.913Z,4.10
2019-03-28T10:23:22.855Z,3.30
2019-03-28T10:25:53.568Z,3.00
2019-03-28T10:28:24.654Z,3.97
2019-03-28T10:30:56.310Z,3.83
2019-03-28T10:33:27.028Z,3.67
2019-03-28T10:35:57.803Z,3.20
2019-03-28T10:38:28.505Z,3.47
2019-03-28T10:41:00.147Z,2.70
2019-03-28T10:43:31.011Z,2.03
2019-03-28T10:46:02.495Z,4.17
2019-03-28T10:48:33.265Z,4.67
2019-03-28T10:51:03.657Z,4.23
2019-03-28T10:53:34.544Z,5.57
2019-03-28T10:56:05.158Z,4.57
2019-03-28T10:58:37.505Z,4.93
2019-03-28T11:01:09.154Z,4.00
2019-03-28T11:03:39.927Z,4.50
2019-03-28T11:06:10.434Z,4.17
2019-03-28T11:08:42.648Z,4.53
2019-03-28T11:11:14.541Z,3.97
2019-03-28T11:13:45.990Z,3.73
2019-03-28T11:16:16.625Z,4.50
2019-03-28T11:18:47.037Z,4.93
2019-03-28T11:21:17.635Z,3.87
2019-03-28T11:23:48.123Z,3.70
2019-03-28T11:26:19.884Z,4.77
2019-03-28T11:28:50.703Z,5.03
2019-03-28T11:31:21.429Z,3.77
2019-03-28T11:33:51.909Z,5.37
2019-03-28T11:36:22.597Z,4.20
2019-03-28T11:38:53.144Z,4.30
2019-03-28T11:41:23.950Z,4.30
2019-03-28T11:43:54.559Z,3.50
2019-03-28T11:46:25.041Z,3.50
2019-03-28T11:48:55.520Z,3.60
2019-03-28T11:51:27.517Z,4.23
2019-03-28T11:53:57.935Z,4.07
2019-03-28T11:56:29.781Z,3.70
2019-03-28T11:59:00.224Z,3.93
2019-03-28T12:01:32.387Z,3.10
2019-03-28T12:04:02.852Z,3.83
2019-03-28T12:06:34.318Z,3.80
2019-03-28T12:09:07.388Z,4.17
2019-03-28T12:11:38.115Z,3.90
2019-03-28T12:14:08.645Z,3.60
2019-03-28T12:16:40.616Z,4.77
2019-03-28T12:19:11.221Z,3.70
2019-03-28T12:21:41.782Z,4.53
2019-03-28T12:24:12.676Z,3.40
2019-03-28T12:26:43.490Z,3.80
2019-03-28T12:29:13.999Z,3.00
2019-03-28T12:31:46.169Z,3.03
2019-03-28T12:34:16.661Z,3.37
2019-03-28T12:36:47.509Z,3.60
2019-03-28T12:39:18.095Z,3.93
2019-03-28T12:41:48.786Z,4.97
2019-03-28T12:44:19.367Z,4.00
2019-03-28T12:46:51.596Z,5.10
2019-03-28T12:49:38.955Z,3.83
2019-03-28T12:52:09.407Z,4.23
2019-03-28T12:54:43.997Z,4.20
2019-03-28T12:57:14.542Z,3.40
2019-03-28T12:59:45.802Z,3.83
2019-03-28T13:02:28.323Z,2.90
2019-03-28T13:04:49.745Z,3.23
2019-03-28T13:07:20.672Z,3.10
2019-03-28T13:09:51.281Z,3.20
2019-03-28T13:12:22.911Z,4.07
2019-03-28T13:14:53.812Z,3.70
2019-03-28T13:17:24.336Z,3.13
2019-03-28T13:19:54.851Z,3.13
2019-03-28T13:22:25.301Z,4.27
2019-03-28T13:24:56.345Z,3.33
2019-03-28T13:27:26.943Z,3.30
2019-03-28T13:29:57.700Z,3.70
2019-03-28T13:32:41.043Z,4.10
2019-03-28T13:35:00.822Z,3.83
2019-03-28T13:37:31.864Z,4.10
2019-03-28T13:40:02.685Z,3.53
2019-03-28T13:42:33.317Z,3.40
2019-03-28T13:45:07.914Z,3.70
2019-03-28T13:47:38.510Z,3.43
2019-03-28T13:50:09.843Z,3.30
2019-03-28T13:52:40.596Z,3.60
2019-03-28T13:55:11.234Z,3.27
2019-03-28T13:57:43.413Z,3.37
2019-03-28T14:00:15.475Z,3.17
2019-03-28T14:02:57.166Z,3.50
2019-03-28T14:05:18.526Z,4.30
2019-03-28T14:07:49.166Z,3.23
2019-03-28T14:10:21.760Z,2.53
2019-03-28T14:12:52.188Z,3.27
2019-03-28T14:15:22.849Z,3.90
2019-03-28T14:17:54.154Z,2.97
2019-03-28T14:20:24.650Z,3.10
2019-03-28T14:22:56.942Z,4.00
2019-03-28T14:25:28.029Z,4.07
2019-03-28T14:27:58.902Z,3.43
2019-03-28T14:30:30.008Z,3.30
2019-03-28T14:33:11.294Z,3.17
2019-03-28T14:35:33.487Z,3.10
2019-03-28T14:38:04.067Z,3.03
2019-03-28T14:40:34.546Z,3.07
2019-03-28T14:43:05.397Z,4.40
2019-03-28T14:45:35.969Z,3.57
2019-03-28T14:48:07.101Z,3.30
2019-03-28T14:50:39.193Z,3.37
2019-03-28T14:53:09.822Z,3.93
2019-03-28T14:55:40.381Z,3.27
2019-03-28T14:58:11.084Z,5.03
2019-03-28T15:00:49.036Z,4.63
2019-03-28T15:03:26.111Z,4.17
2019-03-28T15:05:52.305Z,2.77
2019-03-28T15:08:23.094Z,2.90
2019-03-28T15:10:53.609Z,3.47
2019-03-28T15:13:24.327Z,3.10
2019-03-28T15:15:55.732Z,3.30
2019-03-28T15:18:26.195Z,3.30
2019-03-28T15:20:57.212Z,4.40
2019-03-28T15:23:29.101Z,5.67
2019-03-28T15:26:00.200Z,4.53
2019-03-28T15:28:32.368Z,3.37
2019-03-28T15:31:02.972Z,5.17
2019-03-28T15:33:39.738Z,7.13
2019-03-28T15:36:07.884Z,5.70
2019-03-28T15:38:39.918Z,3.70
2019-03-28T15:41:11.883Z,3.23
2019-03-28T15:43:42.573Z,3.83
2019-03-28T15:46:13.181Z,3.43
2019-03-28T15:48:44.123Z,3.17
2019-03-28T15:51:14.727Z,3.10
2019-03-28T15:53:48.061Z,3.03
2019-03-28T15:56:20.440Z,3.00
2019-03-28T15:58:52.812Z,2.83
2019-03-28T16:01:23.557Z,3.30
2019-03-28T16:03:54.286Z,3.53
2019-03-28T16:06:28.108Z,3.00
2019-03-28T16:09:00.370Z,3.30
2019-03-28T16:11:31.825Z,3.60
2019-03-28T16:14:03.316Z,3.50
2019-03-28T16:16:34.264Z,4.40
2019-03-28T16:19:05.736Z,4.40
2019-03-28T16:21:36.639Z,3.47
2019-03-28T16:24:08.288Z,5.00
2019-03-28T16:26:40.358Z,4.70
2019-03-28T16:29:10.869Z,4.40
2019-03-28T16:31:41.318Z,3.90
2019-03-28T16:34:11.866Z,3.63
2019-03-28T16:36:47.051Z,4.33
2019-03-28T16:39:17.738Z,4.17
2019-03-28T16:41:49.107Z,4.03
2019-03-28T16:44:20.207Z,4.07
2019-03-28T16:46:50.690Z,3.83
2019-03-28T16:49:21.512Z,4.20
2019-03-28T16:51:52.029Z,4.33
2019-03-28T16:54:22.860Z,5.23
2019-03-28T16:56:53.754Z,7.20
2019-03-28T16:59:25.482Z,6.53
2019-03-28T17:01:56.404Z,5.17
2019-03-28T17:04:27.920Z,5.83
2019-03-28T17:06:59.678Z,4.00
2019-03-28T17:09:37.463Z,4.00
2019-03-28T17:12:07.047Z,5.57
2019-03-28T17:14:37.714Z,7.23
2019-03-28T17:17:09.006Z,7.33
2019-03-28T17:19:42.623Z,5.43
2019-03-28T17:22:11.640Z,6.63
2019-03-28T17:24:42.197Z,10.10
2019-03-28T17:27:12.723Z,6.90
2019-03-28T17:29:43.433Z,7.07
2019-03-28T17:32:14.945Z,6.87
2019-03-28T17:34:47.277Z,22.67
2019-03-28T17:37:17.783Z,28.47
2019-03-28T17:39:48.441Z,13.97
2019-03-28T17:42:19.046Z,11.37
2019-03-28T17:44:49.525Z,8.03
2019-03-28T17:47:20.206Z,6.40
2019-03-28T17:49:51.759Z,8.03
2019-03-28T17:52:22.557Z,8.57
2019-03-28T17:54:54.690Z,8.80
2019-03-28T17:57:25.608Z,6.97
2019-03-28T17:59:56.250Z,7.47
2019-03-28T18:02:26.995Z,6.67
2019-03-28T18:05:09.233Z,5.07
2019-03-28T18:07:31.052Z,7.93
2019-03-28T18:10:01.543Z,14.00
2019-03-28T18:12:33.100Z,10.03
2019-03-28T18:15:03.950Z,8.80
2019-03-28T18:17:34.740Z,9.47
2019-03-28T18:20:08.314Z,10.20
2019-03-28T18:22:39.453Z,6.80
2019-03-28T18:25:10.264Z,6.23
2019-03-28T18:27:41.321Z,6.17
2019-03-28T18:30:12.159Z,4.47
2019-03-28T18:32:42.879Z,4.70
2019-03-28T18:35:13.516Z,4.37
2019-03-28T18:37:44.752Z,5.93
2019-03-28T18:40:15.295Z,6.10
2019-03-28T18:42:46.635Z,6.77
2019-03-28T18:45:18.051Z,5.70
2019-03-28T18:47:49.423Z,6.87
2019-03-28T18:50:20.073Z,7.03
2019-03-28T18:52:52.777Z,6.53
2019-03-28T18:55:23.839Z,6.63
2019-03-28T18:57:54.459Z,7.70
2019-03-28T19:00:25.925Z,7.53
2019-03-28T19:02:57.036Z,6.87
2019-03-28T19:05:27.908Z,7.37
2019-03-28T19:08:00.260Z,12.10
2019-03-28T19:10:31.669Z,15.53
2019-03-28T19:13:04.744Z,14.23
2019-03-28T19:15:35.093Z,15.27
2019-03-28T19:18:07.685Z,16.10
2019-03-28T19:20:38.690Z,18.93
2019-03-28T19:23:10.488Z,18.27
2019-03-28T19:25:46.621Z,15.70
2019-03-28T19:28:28.236Z,15.57
2019-03-28T19:30:48.914Z,12.67
2019-03-28T19:33:21.516Z,11.87
2019-03-28T19:35:53.339Z,7.80
2019-03-28T19:38:24.343Z,13.93
2019-03-28T19:40:55.024Z,12.70
2019-03-28T19:43:25.522Z,15.37
2019-03-28T19:45:56.319Z,9.27
2019-03-28T19:48:28.026Z,9.83
2019-03-28T19:50:58.934Z,11.53
2019-03-28T19:53:31.386Z,12.50
2019-03-28T19:56:04.027Z,12.03
2019-03-28T19:58:35.285Z,12.83
2019-03-28T20:01:06.556Z,14.47
2019-03-28T20:03:37.471Z,17.33
2019-03-28T20:06:21.291Z,14.13
2019-03-28T20:08:41.405Z,15.33
2019-03-28T20:11:13.410Z,20.33
2019-03-28T20:13:44.279Z,16.20
2019-03-28T20:16:15.043Z,19.77
2019-03-28T20:18:45.793Z,12.93
2019-03-28T20:21:16.868Z,22.53
2019-03-28T20:23:48.874Z,20.07
2019-03-28T20:26:21.707Z,22.07
2019-03-28T20:28:52.341Z,21.93
2019-03-28T20:31:22.917Z,21.27
2019-03-28T20:33:53.678Z,21.47
2019-03-28T20:36:37.660Z,17.70
2019-03-28T20:39:04.288Z,18.17
2019-03-28T20:41:33.331Z,19.60
2019-03-28T20:44:04.174Z,19.00
2019-03-28T20:46:35.248Z,19.03
2019-03-28T20:49:06.404Z,18.17
2019-03-28T20:51:39.359Z,14.93
2019-03-28T20:54:12.212Z,15.97
2019-03-28T20:56:43.234Z,17.00
2019-03-28T20:59:14.487Z,15.77
2019-03-28T21:01:45.717Z,16.83
2019-03-28T21:04:30.320Z,15.70
2019-03-28T21:06:50.177Z,15.70
2019-03-28T21:09:20.998Z,15.47
2019-03-28T21:11:52.963Z,15.27
2019-03-28T21:14:28.036Z,14.97
2019-03-28T21:17:00.599Z,15.90
2019-03-28T21:19:31.635Z,18.37
2019-03-28T21:22:05.725Z,16.67
2019-03-28T21:24:35.097Z,17.27
2019-03-28T21:27:08.459Z,17.60
2019-03-28T21:29:48.762Z,17.47
2019-03-28T21:32:16.474Z,21.63
2019-03-28T21:34:47.767Z,21.87
2019-03-28T21:37:18.857Z,18.17
2019-03-28T21:39:49.654Z,21.20
2019-03-28T21:42:20.250Z,21.80
2019-03-28T21:44:52.673Z,22.43
2019-03-28T21:47:23.361Z,19.67
2019-03-28T21:49:54.007Z,18.80
2019-03-28T21:52:24.680Z,21.37
2019-03-28T21:54:55.883Z,15.13
2019-03-28T21:57:26.814Z,14.77
2019-03-28T21:59:57.647Z,11.33
2019-03-28T22:02:28.379Z,12.60
2019-03-28T22:05:01.532Z,13.57
2019-03-28T22:07:32.399Z,9.63
2019-03-28T22:10:03.407Z,11.40
2019-03-28T22:12:34.282Z,11.77
2019-03-28T22:15:06.554Z,11.50
2019-03-28T22:17:37.699Z,10.77
2019-03-28T22:20:08.299Z,10.57
2019-03-28T22:22:38.890Z,11.83
2019-03-28T22:25:09.748Z,12.77
2019-03-28T22:27:40.242Z,15.50
2019-03-28T22:30:11.367Z,16.63
2019-03-28T22:32:42.266Z,16.60
2019-03-28T22:35:13.104Z,16.43
2019-03-28T22:37:44.778Z,15.13
2019-03-28T22:40:17.252Z,14.67
2019-03-28T22:42:47.699Z,13.20
2019-03-28T22:45:18.397Z,13.93
2019-03-28T22:47:48.886Z,15.90
2019-03-28T22:50:21.255Z,13.53
2019-03-28T22:52:51.943Z,14.93
2019-03-28T22:55:22.484Z,15.17
2019-03-28T22:57:54.094Z,14.73
2019-03-28T23:00:26.759Z,14.87
2019-03-28T23:02:59.046Z,12.97
2019-03-28T23:05:30.867Z,11.10
2019-03-28T23:08:01.568Z,8.83
2019-03-28T23:10:32.151Z,9.50
2019-03-28T23:13:02.652Z,7.80
2019-03-28T23:15:33.301Z,7.70
2019-03-28T23:18:04.690Z,7.60
2019-03-28T23:20:36.183Z,7.73
2019-03-28T23:23:06.695Z,7.60
2019-03-28T23:25:37.252Z,8.57
2019-03-28T23:28:08.084Z,8.47
2019-03-28T23:30:38.742Z,8.13
2019-03-28T23:33:09.465Z,8.50
2019-03-28T23:35:40.996Z,9.73
2019-03-28T23:38:11.763Z,9.20
2019-03-28T23:40:42.526Z,10.10
2019-03-28T23:43:13.200Z,10.40
2019-03-28T23:45:44.000Z,9.33
2019-03-28T23:48:14.674Z,8.13
2019-03-28T23:50:45.192Z,7.13
2019-03-28T23:53:15.725Z,6.37
2019-03-28T23:55:46.629Z,7.50
2019-03-28T23:58:17.305Z,6.73
